sensor_id;sensor_type;location;lat;lon;timestamp;P1;durP1;ratioP1;P2;durP2;ratioP2
62796;SDS011;48839;48.546;-4.178;2022-07-23T00:00:13;5.88;;;4.15;;
62796;SDS011;48839;48.546;-4.178;2022-07-23T00:02:40;6.10;;;4.47;;
62796;SDS011;48839;48.546;-4.178;2022-07-23T00:05:05;5.32;;;4.07;;
62796;SDS011;48839;48.546;-4.178;2022-07-23T00:07:31;6.15;;;4.13;;
62796;SDS011;48839;48.546;-4.178;2022-07-23T00:09:57;5.43;;;4.30;;
62796;SDS011;48839;48.546;-4.178;2022-07-23T00:12:23;5.40;;;4.40;;
62796;SDS011;48839;48.546;-4.178;2022-07-23T00:14:49;5.72;;;4.30;;
62796;SDS011;48839;48.546;-4.178;2022-07-23T00:17:14;6.57;;;3.80;;
62796;SDS011;48839;48.546;-4.178;2022-07-23T00:19:40;4.88;;;3.95;;
62796;SDS011;48839;48.546;-4.178;2022-07-23T00:22:06;7.20;;;4.32;;
62796;SDS011;48839;48.546;-4.178;2022-07-23T00:24:31;10.10;;;4.07;;
62796;SDS011;48839;48.546;-4.178;2022-07-23T00:26:57;7.38;;;4.22;;
62796;SDS011;48839;48.546;-4.178;2022-07-23T00:29:22;11.20;;;4.65;;
62796;SDS011;48839;48.546;-4.178;2022-07-23T00:31:48;6.20;;;4.60;;
62796;SDS011;48839;48.546;-4.178;2022-07-23T00:34:14;7.43;;;4.05;;
62796;SDS011;48839;48.546;-4.178;2022-07-23T00:36:39;5.68;;;4.50;;
62796;SDS011;48839;48.546;-4.178;2022-07-23T00:39:06;6.63;;;4.35;;
62796;SDS011;48839;48.546;-4.178;2022-07-23T00:41:32;6.78;;;4.03;;
62796;SDS011;48839;48.546;-4.178;2022-07-23T00:46:46;8.95;;;5.10;;
62796;SDS011;48839;48.546;-4.178;2022-07-23T00:49:14;7.78;;;4.90;;
62796;SDS011;48839;48.546;-4.178;2022-07-23T00:51:39;6.68;;;4.68;;
62796;SDS011;48839;48.546;-4.178;2022-07-23T00:54:05;7.40;;;4.55;;
62796;SDS011;48839;48.546;-4.178;2022-07-23T00:56:31;6.65;;;4.75;;
62796;SDS011;48839;48.546;-4.178;2022-07-23T00:58:57;6.47;;;5.05;;
62796;SDS011;48839;48.546;-4.178;2022-07-23T01:01:25;8.90;;;4.78;;
62796;SDS011;48839;48.546;-4.178;2022-07-23T01:03:50;9.93;;;4.90;;
62796;SDS011;48839;48.546;-4.178;2022-07-23T01:06:16;9.27;;;5.72;;
62796;SDS011;48839;48.546;-4.178;2022-07-23T01:08:42;6.68;;;5.03;;
62796;SDS011;48839;48.546;-4.178;2022-07-23T01:11:08;7.95;;;5.47;;
62796;SDS011;48839;48.546;-4.178;2022-07-23T01:13:34;6.53;;;5.40;;
62796;SDS011;48839;48.546;-4.178;2022-07-23T01:15:59;10.57;;;5.72;;
62796;SDS011;48839;48.546;-4.178;2022-07-23T01:18:25;7.07;;;5.47;;
62796;SDS011;48839;48.546;-4.178;2022-07-23T01:20:51;6.85;;;5.43;;
62796;SDS011;48839;48.546;-4.178;2022-07-23T01:23:17;6.50;;;5.18;;
62796;SDS011;48839;48.546;-4.178;2022-07-23T01:25:49;6.70;;;5.18;;
62796;SDS011;48839;48.546;-4.178;2022-07-23T01:28:17;12.40;;;5.95;;
62796;SDS011;48839;48.546;-4.178;2022-07-23T01:30:43;9.25;;;5.50;;
62796;SDS011;48839;48.546;-4.178;2022-07-23T01:33:09;9.98;;;5.28;;
62796;SDS011;48839;48.546;-4.178;2022-07-23T01:35:34;7.45;;;5.93;;
62796;SDS011;48839;48.546;-4.178;2022-07-23T01:38:00;10.27;;;6.20;;
62796;SDS011;48839;48.546;-4.178;2022-07-23T01:40:26;8.52;;;6.03;;
62796;SDS011;48839;48.546;-4.178;2022-07-23T01:42:51;7.75;;;5.60;;
62796;SDS011;48839;48.546;-4.178;2022-07-23T01:45:17;7.35;;;5.60;;
62796;SDS011;48839;48.546;-4.178;2022-07-23T01:47:43;12.57;;;5.90;;
62796;SDS011;48839;48.546;-4.178;2022-07-23T01:50:09;8.02;;;6.05;;
62796;SDS011;48839;48.546;-4.178;2022-07-23T01:52:34;9.02;;;5.63;;
62796;SDS011;48839;48.546;-4.178;2022-07-23T01:55:00;9.15;;;5.40;;
62796;SDS011;48839;48.546;-4.178;2022-07-23T01:57:26;9.90;;;6.45;;
62796;SDS011;48839;48.546;-4.178;2022-07-23T01:59:51;7.85;;;5.60;;
62796;SDS011;48839;48.546;-4.178;2022-07-23T02:02:17;10.32;;;5.63;;
62796;SDS011;48839;48.546;-4.178;2022-07-23T02:04:42;10.02;;;6.25;;
62796;SDS011;48839;48.546;-4.178;2022-07-23T02:07:08;9.88;;;5.90;;
62796;SDS011;48839;48.546;-4.178;2022-07-23T02:09:34;8.82;;;6.70;;
62796;SDS011;48839;48.546;-4.178;2022-07-23T02:12:00;7.72;;;6.05;;
62796;SDS011;48839;48.546;-4.178;2022-07-23T02:14:25;10.52;;;6.20;;
62796;SDS011;48839;48.546;-4.178;2022-07-23T02:16:51;10.13;;;6.45;;
62796;SDS011;48839;48.546;-4.178;2022-07-23T02:19:17;8.82;;;5.88;;
62796;SDS011;48839;48.546;-4.178;2022-07-23T02:21:43;11.95;;;6.78;;
62796;SDS011;48839;48.546;-4.178;2022-07-23T02:24:09;7.78;;;5.90;;
62796;SDS011;48839;48.546;-4.178;2022-07-23T02:26:35;9.77;;;6.50;;
62796;SDS011;48839;48.546;-4.178;2022-07-23T02:29:01;10.52;;;6.30;;
62796;SDS011;48839;48.546;-4.178;2022-07-23T02:31:28;10.00;;;5.95;;
62796;SDS011;48839;48.546;-4.178;2022-07-23T02:33:54;7.40;;;5.57;;
62796;SDS011;48839;48.546;-4.178;2022-07-23T02:36:20;8.00;;;6.20;;
62796;SDS011;48839;48.546;-4.178;2022-07-23T02:38:46;9.40;;;5.93;;
62796;SDS011;48839;48.546;-4.178;2022-07-23T02:41:12;9.93;;;6.35;;
62796;SDS011;48839;48.546;-4.178;2022-07-23T02:43:38;10.30;;;6.47;;
62796;SDS011;48839;48.546;-4.178;2022-07-23T02:46:04;10.32;;;6.20;;
62796;SDS011;48839;48.546;-4.178;2022-07-23T02:48:29;7.90;;;5.43;;
62796;SDS011;48839;48.546;-4.178;2022-07-23T02:50:55;8.63;;;5.82;;
62796;SDS011;48839;48.546;-4.178;2022-07-23T02:53:21;8.02;;;5.13;;
62796;SDS011;48839;48.546;-4.178;2022-07-23T02:55:50;9.73;;;5.38;;
62796;SDS011;48839;48.546;-4.178;2022-07-23T02:58:15;9.20;;;6.25;;
62796;SDS011;48839;48.546;-4.178;2022-07-23T03:00:41;8.40;;;5.50;;
62796;SDS011;48839;48.546;-4.178;2022-07-23T03:03:07;10.27;;;5.82;;
62796;SDS011;48839;48.546;-4.178;2022-07-23T03:05:33;8.13;;;5.65;;
62796;SDS011;48839;48.546;-4.178;2022-07-23T03:07:59;7.88;;;5.43;;
62796;SDS011;48839;48.546;-4.178;2022-07-23T03:10:25;6.55;;;5.10;;
62796;SDS011;48839;48.546;-4.178;2022-07-23T03:12:50;7.55;;;5.43;;
62796;SDS011;48839;48.546;-4.178;2022-07-23T03:15:16;7.45;;;4.97;;
62796;SDS011;48839;48.546;-4.178;2022-07-23T03:17:41;6.18;;;4.90;;
62796;SDS011;48839;48.546;-4.178;2022-07-23T03:20:07;8.65;;;5.45;;
62796;SDS011;48839;48.546;-4.178;2022-07-23T03:22:33;6.05;;;5.20;;
62796;SDS011;48839;48.546;-4.178;2022-07-23T03:24:59;6.90;;;4.80;;
62796;SDS011;48839;48.546;-4.178;2022-07-23T03:27:26;7.07;;;5.35;;
62796;SDS011;48839;48.546;-4.178;2022-07-23T03:29:53;6.60;;;4.53;;
62796;SDS011;48839;48.546;-4.178;2022-07-23T03:32:21;9.38;;;5.05;;
62796;SDS011;48839;48.546;-4.178;2022-07-23T03:34:47;7.25;;;4.97;;
62796;SDS011;48839;48.546;-4.178;2022-07-23T03:37:14;5.53;;;4.57;;
62796;SDS011;48839;48.546;-4.178;2022-07-23T03:39:40;7.65;;;4.95;;
62796;SDS011;48839;48.546;-4.178;2022-07-23T03:42:06;7.93;;;4.53;;
62796;SDS011;48839;48.546;-4.178;2022-07-23T03:44:32;7.22;;;4.93;;
62796;SDS011;48839;48.546;-4.178;2022-07-23T03:46:58;6.45;;;5.20;;
62796;SDS011;48839;48.546;-4.178;2022-07-23T03:49:24;10.15;;;5.50;;
62796;SDS011;48839;48.546;-4.178;2022-07-23T03:51:49;10.48;;;5.85;;
62796;SDS011;48839;48.546;-4.178;2022-07-23T03:54:15;7.57;;;5.28;;
62796;SDS011;48839;48.546;-4.178;2022-07-23T03:56:41;6.07;;;4.78;;
62796;SDS011;48839;48.546;-4.178;2022-07-23T03:59:08;8.70;;;4.85;;
62796;SDS011;48839;48.546;-4.178;2022-07-23T04:01:34;7.05;;;4.57;;
62796;SDS011;48839;48.546;-4.178;2022-07-23T04:04:00;8.55;;;5.10;;
62796;SDS011;48839;48.546;-4.178;2022-07-23T04:06:26;7.05;;;5.05;;
62796;SDS011;48839;48.546;-4.178;2022-07-23T04:08:52;7.75;;;5.15;;
62796;SDS011;48839;48.546;-4.178;2022-07-23T04:11:17;8.65;;;5.15;;
62796;SDS011;48839;48.546;-4.178;2022-07-23T04:13:43;8.80;;;5.90;;
62796;SDS011;48839;48.546;-4.178;2022-07-23T04:16:09;7.32;;;5.28;;
62796;SDS011;48839;48.546;-4.178;2022-07-23T04:18:34;12.45;;;5.60;;
62796;SDS011;48839;48.546;-4.178;2022-07-23T04:21:00;8.15;;;5.03;;
62796;SDS011;48839;48.546;-4.178;2022-07-23T04:23:26;8.90;;;5.05;;
62796;SDS011;48839;48.546;-4.178;2022-07-23T04:25:52;7.97;;;5.72;;
62796;SDS011;48839;48.546;-4.178;2022-07-23T04:28:17;6.55;;;4.90;;
62796;SDS011;48839;48.546;-4.178;2022-07-23T04:30:43;9.43;;;5.25;;
62796;SDS011;48839;48.546;-4.178;2022-07-23T04:33:08;7.30;;;5.35;;
62796;SDS011;48839;48.546;-4.178;2022-07-23T04:35:34;8.13;;;5.70;;
62796;SDS011;48839;48.546;-4.178;2022-07-23T04:38:01;6.03;;;4.95;;
62796;SDS011;48839;48.546;-4.178;2022-07-23T04:40:27;8.20;;;5.35;;
62796;SDS011;48839;48.546;-4.178;2022-07-23T04:42:53;10.35;;;5.53;;
62796;SDS011;48839;48.546;-4.178;2022-07-23T04:45:18;8.85;;;6.05;;
62796;SDS011;48839;48.546;-4.178;2022-07-23T04:47:44;10.45;;;6.20;;
62796;SDS011;48839;48.546;-4.178;2022-07-23T04:50:10;10.90;;;6.40;;
62796;SDS011;48839;48.546;-4.178;2022-07-23T04:52:35;8.95;;;6.47;;
62796;SDS011;48839;48.546;-4.178;2022-07-23T04:55:01;9.77;;;6.68;;
62796;SDS011;48839;48.546;-4.178;2022-07-23T04:57:27;10.60;;;7.05;;
62796;SDS011;48839;48.546;-4.178;2022-07-23T04:59:53;9.20;;;6.38;;
62796;SDS011;48839;48.546;-4.178;2022-07-23T05:02:19;13.07;;;7.15;;
62796;SDS011;48839;48.546;-4.178;2022-07-23T05:04:44;8.32;;;6.50;;
62796;SDS011;48839;48.546;-4.178;2022-07-23T05:07:10;8.55;;;6.28;;
62796;SDS011;48839;48.546;-4.178;2022-07-23T05:09:36;10.25;;;6.43;;
62796;SDS011;48839;48.546;-4.178;2022-07-23T05:12:01;11.15;;;6.38;;
62796;SDS011;48839;48.546;-4.178;2022-07-23T05:14:27;9.30;;;7.05;;
62796;SDS011;48839;48.546;-4.178;2022-07-23T05:16:53;10.13;;;7.68;;
62796;SDS011;48839;48.546;-4.178;2022-07-23T05:19:19;11.05;;;7.32;;
62796;SDS011;48839;48.546;-4.178;2022-07-23T05:21:44;12.07;;;6.80;;
62796;SDS011;48839;48.546;-4.178;2022-07-23T05:24:10;11.38;;;7.20;;
62796;SDS011;48839;48.546;-4.178;2022-07-23T05:26:36;12.35;;;6.00;;
62796;SDS011;48839;48.546;-4.178;2022-07-23T05:29:02;12.05;;;7.10;;
62796;SDS011;48839;48.546;-4.178;2022-07-23T05:31:27;10.23;;;6.57;;
62796;SDS011;48839;48.546;-4.178;2022-07-23T05:33:53;9.63;;;6.10;;
62796;SDS011;48839;48.546;-4.178;2022-07-23T05:36:19;12.48;;;5.93;;
62796;SDS011;48839;48.546;-4.178;2022-07-23T05:38:44;9.45;;;5.97;;
62796;SDS011;48839;48.546;-4.178;2022-07-23T05:41:10;10.30;;;6.10;;
62796;SDS011;48839;48.546;-4.178;2022-07-23T05:43:35;14.38;;;5.72;;
62796;SDS011;48839;48.546;-4.178;2022-07-23T05:46:01;9.60;;;5.43;;
62796;SDS011;48839;48.546;-4.178;2022-07-23T05:48:27;7.65;;;5.35;;
62796;SDS011;48839;48.546;-4.178;2022-07-23T05:50:52;10.25;;;4.60;;
62796;SDS011;48839;48.546;-4.178;2022-07-23T05:53:18;9.00;;;5.10;;
62796;SDS011;48839;48.546;-4.178;2022-07-23T05:55:44;8.50;;;4.72;;
62796;SDS011;48839;48.546;-4.178;2022-07-23T05:58:09;8.73;;;4.90;;
62796;SDS011;48839;48.546;-4.178;2022-07-23T06:00:35;6.35;;;4.65;;
62796;SDS011;48839;48.546;-4.178;2022-07-23T06:03:01;8.02;;;4.50;;
62796;SDS011;48839;48.546;-4.178;2022-07-23T06:05:26;8.20;;;4.72;;
62796;SDS011;48839;48.546;-4.178;2022-07-23T06:07:52;9.00;;;4.03;;
62796;SDS011;48839;48.546;-4.178;2022-07-23T06:10:19;7.90;;;4.22;;
62796;SDS011;48839;48.546;-4.178;2022-07-23T06:12:45;5.72;;;4.65;;
62796;SDS011;48839;48.546;-4.178;2022-07-23T06:15:11;7.10;;;4.20;;
62796;SDS011;48839;48.546;-4.178;2022-07-23T06:17:37;5.65;;;4.47;;
62796;SDS011;48839;48.546;-4.178;2022-07-23T06:20:07;9.00;;;4.50;;
62796;SDS011;48839;48.546;-4.178;2022-07-23T06:22:34;6.38;;;4.72;;
62796;SDS011;48839;48.546;-4.178;2022-07-23T06:25:00;8.18;;;4.47;;
62796;SDS011;48839;48.546;-4.178;2022-07-23T06:27:27;6.28;;;4.40;;
62796;SDS011;48839;48.546;-4.178;2022-07-23T06:29:52;4.75;;;3.88;;
62796;SDS011;48839;48.546;-4.178;2022-07-23T06:32:18;7.28;;;4.32;;
62796;SDS011;48839;48.546;-4.178;2022-07-23T06:34:44;6.93;;;4.70;;
62796;SDS011;48839;48.546;-4.178;2022-07-23T06:37:10;5.38;;;4.20;;
62796;SDS011;48839;48.546;-4.178;2022-07-23T06:39:35;5.45;;;4.40;;
62796;SDS011;48839;48.546;-4.178;2022-07-23T06:42:01;5.68;;;4.38;;
62796;SDS011;48839;48.546;-4.178;2022-07-23T06:44:27;5.15;;;4.40;;
62796;SDS011;48839;48.546;-4.178;2022-07-23T06:46:52;5.47;;;3.90;;
62796;SDS011;48839;48.546;-4.178;2022-07-23T06:49:18;4.95;;;3.88;;
62796;SDS011;48839;48.546;-4.178;2022-07-23T06:51:44;4.45;;;3.60;;
62796;SDS011;48839;48.546;-4.178;2022-07-23T06:54:10;5.28;;;3.85;;
62796;SDS011;48839;48.546;-4.178;2022-07-23T06:56:35;5.28;;;3.97;;
62796;SDS011;48839;48.546;-4.178;2022-07-23T06:59:01;4.55;;;3.70;;
62796;SDS011;48839;48.546;-4.178;2022-07-23T07:01:27;5.68;;;3.83;;
62796;SDS011;48839;48.546;-4.178;2022-07-23T07:03:53;4.55;;;3.88;;
62796;SDS011;48839;48.546;-4.178;2022-07-23T07:06:18;6.07;;;3.83;;
62796;SDS011;48839;48.546;-4.178;2022-07-23T07:08:44;3.78;;;3.40;;
62796;SDS011;48839;48.546;-4.178;2022-07-23T07:11:10;4.78;;;3.20;;
62796;SDS011;48839;48.546;-4.178;2022-07-23T07:13:36;5.53;;;3.13;;
62796;SDS011;48839;48.546;-4.178;2022-07-23T07:16:02;4.35;;;3.05;;
62796;SDS011;48839;48.546;-4.178;2022-07-23T07:18:29;5.03;;;3.35;;
62796;SDS011;48839;48.546;-4.178;2022-07-23T07:20:54;3.50;;;2.83;;
62796;SDS011;48839;48.546;-4.178;2022-07-23T07:23:21;5.10;;;3.30;;
62796;SDS011;48839;48.546;-4.178;2022-07-23T07:25:47;6.78;;;3.67;;
62796;SDS011;48839;48.546;-4.178;2022-07-23T07:28:13;3.60;;;3.05;;
62796;SDS011;48839;48.546;-4.178;2022-07-23T07:30:38;4.43;;;3.03;;
62796;SDS011;48839;48.546;-4.178;2022-07-23T07:33:04;3.30;;;3.00;;
62796;SDS011;48839;48.546;-4.178;2022-07-23T07:35:30;3.85;;;3.10;;
62796;SDS011;48839;48.546;-4.178;2022-07-23T07:37:57;4.68;;;3.20;;
62796;SDS011;48839;48.546;-4.178;2022-07-23T07:40:23;4.38;;;3.58;;
62796;SDS011;48839;48.546;-4.178;2022-07-23T07:42:52;3.47;;;3.17;;
62796;SDS011;48839;48.546;-4.178;2022-07-23T07:45:19;4.75;;;3.28;;
62796;SDS011;48839;48.546;-4.178;2022-07-23T07:47:46;3.33;;;2.72;;
62796;SDS011;48839;48.546;-4.178;2022-07-23T07:50:12;4.63;;;3.00;;
62796;SDS011;48839;48.546;-4.178;2022-07-23T07:52:38;5.78;;;3.42;;
62796;SDS011;48839;48.546;-4.178;2022-07-23T07:55:04;4.03;;;2.83;;
62796;SDS011;48839;48.546;-4.178;2022-07-23T07:57:32;5.15;;;2.60;;
62796;SDS011;48839;48.546;-4.178;2022-07-23T07:59:58;3.70;;;2.90;;
62796;SDS011;48839;48.546;-4.178;2022-07-23T08:02:23;3.58;;;2.67;;
62796;SDS011;48839;48.546;-4.178;2022-07-23T08:04:49;4.07;;;2.80;;
62796;SDS011;48839;48.546;-4.178;2022-07-23T08:07:15;3.00;;;2.70;;
62796;SDS011;48839;48.546;-4.178;2022-07-23T08:09:40;3.97;;;2.30;;
62796;SDS011;48839;48.546;-4.178;2022-07-23T08:12:06;3.40;;;2.40;;
62796;SDS011;48839;48.546;-4.178;2022-07-23T08:14:33;4.47;;;2.53;;
62796;SDS011;48839;48.546;-4.178;2022-07-23T08:16:59;2.92;;;2.40;;
62796;SDS011;48839;48.546;-4.178;2022-07-23T08:19:24;2.60;;;2.40;;
62796;SDS011;48839;48.546;-4.178;2022-07-23T08:21:50;2.60;;;2.40;;
62796;SDS011;48839;48.546;-4.178;2022-07-23T08:24:16;2.35;;;2.13;;
62796;SDS011;48839;48.546;-4.178;2022-07-23T08:26:41;2.50;;;2.30;;
62796;SDS011;48839;48.546;-4.178;2022-07-23T08:29:07;3.00;;;2.25;;
62796;SDS011;48839;48.546;-4.178;2022-07-23T08:31:33;3.65;;;2.15;;
62796;SDS011;48839;48.546;-4.178;2022-07-23T08:33:59;3.42;;;2.40;;
62796;SDS011;48839;48.546;-4.178;2022-07-23T08:36:25;7.90;;;2.40;;
62796;SDS011;48839;48.546;-4.178;2022-07-23T08:38:57;4.57;;;2.15;;
62796;SDS011;48839;48.546;-4.178;2022-07-23T08:41:24;3.20;;;2.40;;
62796;SDS011;48839;48.546;-4.178;2022-07-23T08:43:50;4.30;;;2.28;;
62796;SDS011;48839;48.546;-4.178;2022-07-23T08:46:16;2.80;;;1.85;;
62796;SDS011;48839;48.546;-4.178;2022-07-23T08:48:43;3.28;;;2.33;;
62796;SDS011;48839;48.546;-4.178;2022-07-23T08:51:13;3.33;;;2.28;;
62796;SDS011;48839;48.546;-4.178;2022-07-23T08:53:39;3.03;;;2.13;;
62796;SDS011;48839;48.546;-4.178;2022-07-23T08:56:06;4.18;;;2.20;;
62796;SDS011;48839;48.546;-4.178;2022-07-23T08:58:33;2.25;;;1.98;;
62796;SDS011;48839;48.546;-4.178;2022-07-23T09:00:59;2.15;;;1.95;;
62796;SDS011;48839;48.546;-4.178;2022-07-23T09:03:29;2.28;;;1.85;;
62796;SDS011;48839;48.546;-4.178;2022-07-23T09:06:00;2.95;;;1.60;;
62796;SDS011;48839;48.546;-4.178;2022-07-23T09:08:37;5.15;;;2.28;;
62796;SDS011;48839;48.546;-4.178;2022-07-23T09:11:05;5.50;;;1.90;;
62796;SDS011;48839;48.546;-4.178;2022-07-23T09:16:06;2.13;;;1.83;;
62796;SDS011;48839;48.546;-4.178;2022-07-23T09:18:42;3.85;;;2.55;;
62796;SDS011;48839;48.546;-4.178;2022-07-23T09:21:16;5.53;;;2.38;;
62796;SDS011;48839;48.546;-4.178;2022-07-23T09:23:49;2.13;;;1.80;;
62796;SDS011;48839;48.546;-4.178;2022-07-23T09:26:20;2.80;;;1.45;;
62796;SDS011;48839;48.546;-4.178;2022-07-23T09:28:56;3.65;;;1.95;;
62796;SDS011;48839;48.546;-4.178;2022-07-23T09:31:24;3.45;;;1.77;;
62796;SDS011;48839;48.546;-4.178;2022-07-23T09:34:05;1.95;;;1.60;;
62796;SDS011;48839;48.546;-4.178;2022-07-23T09:37:16;2.20;;;1.35;;
62796;SDS011;48839;48.546;-4.178;2022-07-23T09:39:43;1.90;;;1.70;;
62796;SDS011;48839;48.546;-4.178;2022-07-23T09:42:14;3.45;;;1.98;;
62796;SDS011;48839;48.546;-4.178;2022-07-23T09:44:46;3.53;;;1.88;;
62796;SDS011;48839;48.546;-4.178;2022-07-23T09:47:13;2.20;;;2.00;;
62796;SDS011;48839;48.546;-4.178;2022-07-23T09:49:39;1.83;;;1.73;;
62796;SDS011;48839;48.546;-4.178;2022-07-23T09:52:05;2.90;;;2.20;;
62796;SDS011;48839;48.546;-4.178;2022-07-23T09:54:34;1.95;;;1.80;;
62796;SDS011;48839;48.546;-4.178;2022-07-23T09:57:08;7.05;;;1.90;;
62796;SDS011;48839;48.546;-4.178;2022-07-23T09:59:40;1.60;;;1.50;;
62796;SDS011;48839;48.546;-4.178;2022-07-23T10:02:09;3.58;;;2.80;;
62796;SDS011;48839;48.546;-4.178;2022-07-23T10:04:37;2.00;;;1.45;;
62796;SDS011;48839;48.546;-4.178;2022-07-23T10:07:05;1.58;;;1.40;;
62796;SDS011;48839;48.546;-4.178;2022-07-23T10:09:34;1.90;;;1.55;;
62796;SDS011;48839;48.546;-4.178;2022-07-23T10:12:06;2.38;;;1.42;;
62796;SDS011;48839;48.546;-4.178;2022-07-23T10:14:40;1.52;;;1.30;;
62796;SDS011;48839;48.546;-4.178;2022-07-23T10:17:07;1.85;;;1.70;;
62796;SDS011;48839;48.546;-4.178;2022-07-23T10:19:33;2.00;;;1.42;;
62796;SDS011;48839;48.546;-4.178;2022-07-23T10:35:22;1.77;;;1.27;;
62796;SDS011;48839;48.546;-4.178;2022-07-23T10:38:01;1.75;;;1.50;;
62796;SDS011;48839;48.546;-4.178;2022-07-23T10:40:33;1.00;;;1.00;;
62796;SDS011;48839;48.546;-4.178;2022-07-23T10:42:59;1.38;;;1.23;;
62796;SDS011;48839;48.546;-4.178;2022-07-23T10:45:32;1.90;;;1.30;;
62796;SDS011;48839;48.546;-4.178;2022-07-23T10:48:16;2.10;;;1.35;;
62796;SDS011;48839;48.546;-4.178;2022-07-23T10:50:43;2.42;;;0.95;;
62796;SDS011;48839;48.546;-4.178;2022-07-23T10:53:40;1.40;;;1.30;;
62796;SDS011;48839;48.546;-4.178;2022-07-23T10:59:29;1.58;;;1.20;;
62796;SDS011;48839;48.546;-4.178;2022-07-23T11:01:54;3.03;;;1.30;;
62796;SDS011;48839;48.546;-4.178;2022-07-23T11:04:48;1.35;;;1.25;;
62796;SDS011;48839;48.546;-4.178;2022-07-23T11:07:17;3.78;;;1.55;;
62796;SDS011;48839;48.546;-4.178;2022-07-23T11:09:43;1.52;;;1.17;;
62796;SDS011;48839;48.546;-4.178;2022-07-23T11:17:34;2.17;;;1.40;;
62796;SDS011;48839;48.546;-4.178;2022-07-23T11:25:09;2.15;;;1.52;;
62796;SDS011;48839;48.546;-4.178;2022-07-23T11:27:54;1.77;;;1.08;;
62796;SDS011;48839;48.546;-4.178;2022-07-23T11:32:53;1.63;;;1.10;;
62796;SDS011;48839;48.546;-4.178;2022-07-23T11:35:38;1.80;;;1.35;;
62796;SDS011;48839;48.546;-4.178;2022-07-23T11:40:37;1.55;;;1.10;;
62796;SDS011;48839;48.546;-4.178;2022-07-23T11:43:04;0.98;;;0.98;;
62796;SDS011;48839;48.546;-4.178;2022-07-23T11:45:33;2.05;;;1.10;;
62796;SDS011;48839;48.546;-4.178;2022-07-23T11:48:03;1.40;;;1.10;;
62796;SDS011;48839;48.546;-4.178;2022-07-23T11:50:31;1.20;;;1.10;;
62796;SDS011;48839;48.546;-4.178;2022-07-23T11:52:57;1.58;;;1.17;;
62796;SDS011;48839;48.546;-4.178;2022-07-23T11:55:24;2.58;;;1.00;;
62796;SDS011;48839;48.546;-4.178;2022-07-23T11:57:51;1.17;;;1.13;;
62796;SDS011;48839;48.546;-4.178;2022-07-23T12:00:23;1.80;;;1.33;;
62796;SDS011;48839;48.546;-4.178;2022-07-23T12:02:51;1.05;;;0.85;;
62796;SDS011;48839;48.546;-4.178;2022-07-23T12:07:45;2.60;;;1.23;;
62796;SDS011;48839;48.546;-4.178;2022-07-23T12:10:19;0.93;;;0.90;;
62796;SDS011;48839;48.546;-4.178;2022-07-23T12:12:50;1.80;;;1.00;;
62796;SDS011;48839;48.546;-4.178;2022-07-23T12:15:18;1.60;;;1.13;;
62796;SDS011;48839;48.546;-4.178;2022-07-23T12:17:48;2.33;;;0.90;;
62796;SDS011;48839;48.546;-4.178;2022-07-23T12:20:17;1.10;;;1.00;;
62796;SDS011;48839;48.546;-4.178;2022-07-23T12:22:46;1.10;;;1.00;;
62796;SDS011;48839;48.546;-4.178;2022-07-23T12:25:15;2.45;;;1.00;;
62796;SDS011;48839;48.546;-4.178;2022-07-23T12:27:43;3.85;;;1.25;;
62796;SDS011;48839;48.546;-4.178;2022-07-23T12:30:16;1.30;;;1.00;;
62796;SDS011;48839;48.546;-4.178;2022-07-23T12:32:45;1.90;;;1.10;;
62796;SDS011;48839;48.546;-4.178;2022-07-23T12:35:12;3.85;;;1.08;;
62796;SDS011;48839;48.546;-4.178;2022-07-23T12:37:42;2.22;;;1.13;;
62796;SDS011;48839;48.546;-4.178;2022-07-23T12:40:18;3.08;;;1.10;;
62796;SDS011;48839;48.546;-4.178;2022-07-23T12:42:56;2.13;;;1.10;;
62796;SDS011;48839;48.546;-4.178;2022-07-23T12:45:23;1.95;;;1.33;;
62796;SDS011;48839;48.546;-4.178;2022-07-23T12:47:54;2.78;;;1.00;;
62796;SDS011;48839;48.546;-4.178;2022-07-23T12:51:30;1.10;;;1.10;;
62796;SDS011;48839;48.546;-4.178;2022-07-23T12:56:12;1.27;;;1.13;;
62796;SDS011;48839;48.546;-4.178;2022-07-23T13:01:33;0.77;;;0.77;;
62796;SDS011;48839;48.546;-4.178;2022-07-23T13:04:01;1.33;;;1.23;;
62796;SDS011;48839;48.546;-4.178;2022-07-23T13:06:43;1.08;;;1.05;;
62796;SDS011;48839;48.546;-4.178;2022-07-23T13:09:13;0.98;;;0.85;;
62796;SDS011;48839;48.546;-4.178;2022-07-23T13:11:44;1.30;;;1.13;;
62796;SDS011;48839;48.546;-4.178;2022-07-23T13:14:11;1.15;;;1.00;;
62796;SDS011;48839;48.546;-4.178;2022-07-23T13:16:39;2.40;;;1.05;;
62796;SDS011;48839;48.546;-4.178;2022-07-23T13:19:05;1.08;;;1.08;;
62796;SDS011;48839;48.546;-4.178;2022-07-23T13:21:31;1.98;;;1.00;;
62796;SDS011;48839;48.546;-4.178;2022-07-23T13:23:57;2.67;;;1.10;;
62796;SDS011;48839;48.546;-4.178;2022-07-23T13:26:23;2.33;;;1.13;;
62796;SDS011;48839;48.546;-4.178;2022-07-23T13:28:49;2.50;;;1.00;;
62796;SDS011;48839;48.546;-4.178;2022-07-23T13:31:18;0.90;;;0.90;;
62796;SDS011;48839;48.546;-4.178;2022-07-23T13:33:45;1.17;;;1.10;;
62796;SDS011;48839;48.546;-4.178;2022-07-23T13:36:11;1.10;;;1.10;;
62796;SDS011;48839;48.546;-4.178;2022-07-23T13:38:36;1.35;;;1.10;;
62796;SDS011;48839;48.546;-4.178;2022-07-23T13:41:03;1.10;;;1.00;;
62796;SDS011;48839;48.546;-4.178;2022-07-23T13:43:29;0.70;;;0.70;;
62796;SDS011;48839;48.546;-4.178;2022-07-23T13:45:56;1.00;;;0.90;;
62796;SDS011;48839;48.546;-4.178;2022-07-23T13:48:21;1.33;;;1.00;;
62796;SDS011;48839;48.546;-4.178;2022-07-23T13:50:47;0.63;;;0.63;;
62796;SDS011;48839;48.546;-4.178;2022-07-23T13:53:16;1.38;;;0.93;;
62796;SDS011;48839;48.546;-4.178;2022-07-23T13:55:46;0.90;;;0.90;;
62796;SDS011;48839;48.546;-4.178;2022-07-23T13:58:13;1.10;;;1.00;;
62796;SDS011;48839;48.546;-4.178;2022-07-23T14:00:40;1.10;;;1.02;;
62796;SDS011;48839;48.546;-4.178;2022-07-23T14:03:11;2.15;;;1.10;;
62796;SDS011;48839;48.546;-4.178;2022-07-23T14:05:37;0.70;;;0.70;;
62796;SDS011;48839;48.546;-4.178;2022-07-23T14:08:02;1.63;;;1.10;;
62796;SDS011;48839;48.546;-4.178;2022-07-23T14:10:28;0.80;;;0.80;;
62796;SDS011;48839;48.546;-4.178;2022-07-23T14:12:55;1.77;;;1.60;;
62796;SDS011;48839;48.546;-4.178;2022-07-23T14:15:22;1.77;;;1.17;;
62796;SDS011;48839;48.546;-4.178;2022-07-23T14:17:49;1.10;;;0.88;;
62796;SDS011;48839;48.546;-4.178;2022-07-23T14:20:15;1.08;;;0.95;;
62796;SDS011;48839;48.546;-4.178;2022-07-23T14:22:41;1.63;;;1.00;;
62796;SDS011;48839;48.546;-4.178;2022-07-23T14:25:07;1.70;;;1.27;;
62796;SDS011;48839;48.546;-4.178;2022-07-23T14:27:35;1.90;;;0.95;;
62796;SDS011;48839;48.546;-4.178;2022-07-23T14:30:02;1.65;;;1.10;;
62796;SDS011;48839;48.546;-4.178;2022-07-23T14:32:29;1.00;;;1.00;;
62796;SDS011;48839;48.546;-4.178;2022-07-23T14:34:55;1.00;;;1.00;;
62796;SDS011;48839;48.546;-4.178;2022-07-23T14:37:21;1.30;;;0.80;;
62796;SDS011;48839;48.546;-4.178;2022-07-23T14:39:46;1.23;;;1.13;;
62796;SDS011;48839;48.546;-4.178;2022-07-23T14:42:13;1.55;;;1.15;;
62796;SDS011;48839;48.546;-4.178;2022-07-23T14:44:38;1.00;;;0.90;;
62796;SDS011;48839;48.546;-4.178;2022-07-23T14:47:05;1.15;;;1.05;;
62796;SDS011;48839;48.546;-4.178;2022-07-23T14:49:31;2.25;;;0.80;;
62796;SDS011;48839;48.546;-4.178;2022-07-23T14:51:57;1.00;;;1.00;;
62796;SDS011;48839;48.546;-4.178;2022-07-23T14:54:23;1.55;;;1.10;;
62796;SDS011;48839;48.546;-4.178;2022-07-23T14:56:51;1.70;;;1.20;;
62796;SDS011;48839;48.546;-4.178;2022-07-23T14:59:17;0.90;;;0.90;;
62796;SDS011;48839;48.546;-4.178;2022-07-23T15:01:43;4.15;;;1.58;;
62796;SDS011;48839;48.546;-4.178;2022-07-23T15:04:08;1.48;;;1.20;;
62796;SDS011;48839;48.546;-4.178;2022-07-23T15:06:34;1.65;;;1.05;;
62796;SDS011;48839;48.546;-4.178;2022-07-23T15:09:00;1.63;;;1.35;;
62796;SDS011;48839;48.546;-4.178;2022-07-23T15:11:26;2.72;;;1.20;;
62796;SDS011;48839;48.546;-4.178;2022-07-23T15:13:54;1.10;;;1.00;;
62796;SDS011;48839;48.546;-4.178;2022-07-23T15:16:20;1.38;;;1.10;;
62796;SDS011;48839;48.546;-4.178;2022-07-23T15:18:45;2.50;;;1.08;;